sensor_id;sensor_type;location;lat;lon;timestamp;temperature;humidity
12374;DHT22;6251;51.762;8.660;2023-08-30T01:03:20;11.60;99.90
12374;DHT22;6251;51.762;8.660;2023-08-30T01:13:22;11.60;99.90
12374;DHT22;6251;51.762;8.660;2023-08-30T02:55:16;12.60;99.90
12374;DHT22;6251;51.762;8.660;2023-08-30T04:06:19;12.40;99.90
12374;DHT22;6251;51.762;8.660;2023-08-30T04:16:20;12.20;99.90
12374;DHT22;6251;51.762;8.660;2023-08-30T04:26:20;12.00;99.90
12374;DHT22;6251;51.762;8.660;2023-08-30T04:36:21;12.00;99.90
12374;DHT22;6251;51.762;8.660;2023-08-30T04:46:22;12.10;99.90
12374;DHT22;6251;51.762;8.660;2023-08-30T04:56:22;12.10;99.90
12374;DHT22;6251;51.762;8.660;2023-08-30T05:06:23;12.20;99.90
12374;DHT22;6251;51.762;8.660;2023-08-30T05:16:23;12.40;99.90
12374;DHT22;6251;51.762;8.660;2023-08-30T05:26:26;12.50;99.90
12374;DHT22;6251;51.762;8.660;2023-08-30T05:36:26;12.70;99.90
12374;DHT22;6251;51.762;8.660;2023-08-30T05:46:27;12.80;99.90
12374;DHT22;6251;51.762;8.660;2023-08-30T05:56:27;13.00;99.90
12374;DHT22;6251;51.762;8.660;2023-08-30T06:06:45;13.00;99.90
12374;DHT22;6251;51.762;8.660;2023-08-30T06:16:46;13.20;99.90
12374;DHT22;6251;51.762;8.660;2023-08-30T06:26:47;13.50;99.90
12374;DHT22;6251;51.762;8.660;2023-08-30T06:36:48;13.80;99.90
12374;DHT22;6251;51.762;8.660;2023-08-30T06:46:49;14.00;99.90
12374;DHT22;6251;51.762;8.660;2023-08-30T06:57:00;14.20;99.90
12374;DHT22;6251;51.762;8.660;2023-08-30T07:07:00;14.40;99.90
12374;DHT22;6251;51.762;8.660;2023-08-30T07:17:01;14.60;99.90
12374;DHT22;6251;51.762;8.660;2023-08-30T07:27:02;14.70;99.90
12374;DHT22;6251;51.762;8.660;2023-08-30T07:37:03;14.80;99.90
12374;DHT22;6251;51.762;8.660;2023-08-30T07:47:04;14.90;99.90
12374;DHT22;6251;51.762;8.660;2023-08-30T07:57:04;15.10;99.90
12374;DHT22;6251;51.762;8.660;2023-08-30T08:07:05;15.40;99.90
12374;DHT22;6251;51.762;8.660;2023-08-30T08:17:06;15.60;99.90
12374;DHT22;6251;51.762;8.660;2023-08-30T08:27:08;15.80;99.90
12374;DHT22;6251;51.762;8.660;2023-08-30T08:37:09;16.00;99.90
12374;DHT22;6251;51.762;8.660;2023-08-30T08:47:10;16.30;99.90
12374;DHT22;6251;51.762;8.660;2023-08-30T08:57:10;16.50;99.90
12374;DHT22;6251;51.762;8.660;2023-08-30T09:07:11;16.80;99.90
12374;DHT22;6251;51.762;8.660;2023-08-30T09:17:12;17.00;99.90
12374;DHT22;6251;51.762;8.660;2023-08-30T09:27:12;17.30;99.90
12374;DHT22;6251;51.762;8.660;2023-08-30T09:37:22;17.60;99.90
12374;DHT22;6251;51.762;8.660;2023-08-30T09:47:27;17.90;99.90
12374;DHT22;6251;51.762;8.660;2023-08-30T09:57:28;18.70;99.90
12374;DHT22;6251;51.762;8.660;2023-08-30T10:07:29;19.20;99.90
12374;DHT22;6251;51.762;8.660;2023-08-30T10:17:34;19.80;99.90
12374;DHT22;6251;51.762;8.660;2023-08-30T10:27:37;20.30;99.90
12374;DHT22;6251;51.762;8.660;2023-08-30T10:37:40;20.50;99.90
12374;DHT22;6251;51.762;8.660;2023-08-30T10:47:41;20.70;99.90
12374;DHT22;6251;51.762;8.660;2023-08-30T10:57:43;20.60;99.90
12374;DHT22;6251;51.762;8.660;2023-08-30T11:07:44;21.00;98.60
12374;DHT22;6251;51.762;8.660;2023-08-30T11:17:45;21.50;96.80
12374;DHT22;6251;51.762;8.660;2023-08-30T11:27:46;21.50;96.40
12374;DHT22;6251;51.762;8.660;2023-08-30T11:37:48;21.50;97.20
12374;DHT22;6251;51.762;8.660;2023-08-30T11:47:50;21.20;97.40
12374;DHT22;6251;51.762;8.660;2023-08-30T11:57:50;21.30;99.90
12374;DHT22;6251;51.762;8.660;2023-08-30T12:07:52;21.80;98.60
12374;DHT22;6251;51.762;8.660;2023-08-30T12:17:52;22.50;96.90
12374;DHT22;6251;51.762;8.660;2023-08-30T12:27:53;22.60;95.10
12374;DHT22;6251;51.762;8.660;2023-08-30T12:37:54;22.20;96.40
12374;DHT22;6251;51.762;8.660;2023-08-30T12:47:55;21.80;99.90
12374;DHT22;6251;51.762;8.660;2023-08-30T12:57:58;21.30;99.90
12374;DHT22;6251;51.762;8.660;2023-08-30T13:08:00;20.60;99.30
12374;DHT22;6251;51.762;8.660;2023-08-30T13:18:00;20.10;99.90
12374;DHT22;6251;51.762;8.660;2023-08-30T13:28:01;19.80;99.90
12374;DHT22;6251;51.762;8.660;2023-08-30T13:38:02;19.40;99.90
12374;DHT22;6251;51.762;8.660;2023-08-30T13:48:03;18.40;99.90
12374;DHT22;6251;51.762;8.660;2023-08-30T13:58:04;17.40;99.90
12374;DHT22;6251;51.762;8.660;2023-08-30T14:08:04;16.50;99.90
12374;DHT22;6251;51.762;8.660;2023-08-30T14:18:05;16.00;99.90
12374;DHT22;6251;51.762;8.660;2023-08-30T14:28:06;15.50;99.90
12374;DHT22;6251;51.762;8.660;2023-08-30T14:38:16;15.20;99.90
12374;DHT22;6251;51.762;8.660;2023-08-30T14:48:39;15.00;99.90
12374;DHT22;6251;51.762;8.660;2023-08-30T14:58:40;15.00;99.90
12374;DHT22;6251;51.762;8.660;2023-08-30T15:08:40;15.10;99.90
12374;DHT22;6251;51.762;8.660;2023-08-30T15:18:42;15.30;99.90
12374;DHT22;6251;51.762;8.660;2023-08-30T15:28:43;15.30;99.90
12374;DHT22;6251;51.762;8.660;2023-08-30T15:38:46;15.30;99.90
12374;DHT22;6251;51.762;8.660;2023-08-30T15:48:47;15.20;99.90
12374;DHT22;6251;51.762;8.660;2023-08-30T15:58:48;15.10;99.90
12374;DHT22;6251;51.762;8.660;2023-08-30T16:09:00;15.00;99.90
12374;DHT22;6251;51.762;8.660;2023-08-30T16:19:03;15.00;99.90
12374;DHT22;6251;51.762;8.660;2023-08-30T16:29:04;15.10;99.90
12374;DHT22;6251;51.762;8.660;2023-08-30T16:39:05;15.10;99.90
12374;DHT22;6251;51.762;8.660;2023-08-30T16:49:10;15.10;99.90
12374;DHT22;6251;51.762;8.660;2023-08-30T16:59:11;15.10;99.90
12374;DHT22;6251;51.762;8.660;2023-08-30T17:09:11;15.00;99.90
12374;DHT22;6251;51.762;8.660;2023-08-30T17:19:12;14.90;99.90
12374;DHT22;6251;51.762;8.660;2023-08-30T17:29:13;14.70;99.90
12374;DHT22;6251;51.762;8.660;2023-08-30T17:39:15;14.30;99.90
12374;DHT22;6251;51.762;8.660;2023-08-30T17:49:27;14.10;99.90
12374;DHT22;6251;51.762;8.660;2023-08-30T17:59:29;14.00;99.90
12374;DHT22;6251;51.762;8.660;2023-08-30T18:09:31;14.10;99.90
12374;DHT22;6251;51.762;8.660;2023-08-30T18:19:32;14.10;99.90
12374;DHT22;6251;51.762;8.660;2023-08-30T18:29:32;14.00;99.90
12374;DHT22;6251;51.762;8.660;2023-08-30T18:39:33;13.80;99.90
12374;DHT22;6251;51.762;8.660;2023-08-30T18:49:34;13.70;99.90
12374;DHT22;6251;51.762;8.660;2023-08-30T18:59:35;13.60;99.90
12374;DHT22;6251;51.762;8.660;2023-08-30T19:09:36;13.50;99.90
12374;DHT22;6251;51.762;8.660;2023-08-30T19:19:37;13.30;99.90
12374;DHT22;6251;51.762;8.660;2023-08-30T19:29:37;13.10;99.90
12374;DHT22;6251;51.762;8.660;2023-08-30T19:39:38;13.20;99.90
12374;DHT22;6251;51.762;8.660;2023-08-30T19:49:38;13.20;99.90
12374;DHT22;6251;51.762;8.660;2023-08-30T19:59:44;13.20;99.90
12374;DHT22;6251;51.762;8.660;2023-08-30T20:09:44;13.30;99.90
12374;DHT22;6251;51.762;8.660;2023-08-30T20:19:45;13.20;99.90
12374;DHT22;6251;51.762;8.660;2023-08-30T20:29:46;13.30;99.90
12374;DHT22;6251;51.762;8.660;2023-08-30T20:39:46;13.20;99.90
12374;DHT22;6251;51.762;8.660;2023-08-30T20:49:47;13.30;99.90
12374;DHT22;6251;51.762;8.660;2023-08-30T20:59:48;13.30;99.90
12374;DHT22;6251;51.762;8.660;2023-08-30T23:01:42;12.80;99.90
12374;DHT22;6251;51.762;8.660;2023-08-30T23:11:44;12.80;99.90
